sensor_id;sensor_type;location;lat;lon;timestamp;P1;durP1;ratioP1;P2;durP2;ratioP2
27127;SDS011;14660;49.008;8.390;2023-02-28T00:00:50;5.85;;;3.30;;
27127;SDS011;14660;49.008;8.390;2023-02-28T00:03:17;4.45;;;3.58;;
27127;SDS011;14660;49.008;8.390;2023-02-28T00:05:44;5.18;;;2.72;;
27127;SDS011;14660;49.008;8.390;2023-02-28T00:08:12;2.95;;;2.33;;
27127;SDS011;14660;49.008;8.390;2023-02-28T00:10:39;4.90;;;3.13;;
27127;SDS011;14660;49.008;8.390;2023-02-28T00:13:06;6.25;;;2.90;;
27127;SDS011;14660;49.008;8.390;2023-02-28T00:15:33;5.80;;;2.70;;
27127;SDS011;14660;49.008;8.390;2023-02-28T00:18:01;6.60;;;2.70;;
27127;SDS011;14660;49.008;8.390;2023-02-28T00:20:29;3.72;;;3.05;;
27127;SDS011;14660;49.008;8.390;2023-02-28T00:22:57;4.90;;;2.67;;
27127;SDS011;14660;49.008;8.390;2023-02-28T00:25:25;3.65;;;2.72;;
27127;SDS011;14660;49.008;8.390;2023-02-28T00:27:52;7.88;;;3.05;;
27127;SDS011;14660;49.008;8.390;2023-02-28T00:30:21;5.13;;;2.63;;
27127;SDS011;14660;49.008;8.390;2023-02-28T00:32:49;4.90;;;2.72;;
27127;SDS011;14660;49.008;8.390;2023-02-28T00:35:17;4.65;;;2.97;;
27127;SDS011;14660;49.008;8.390;2023-02-28T00:37:45;4.72;;;2.47;;
27127;SDS011;14660;49.008;8.390;2023-02-28T00:40:12;3.88;;;2.78;;
27127;SDS011;14660;49.008;8.390;2023-02-28T00:42:39;4.43;;;2.67;;
27127;SDS011;14660;49.008;8.390;2023-02-28T00:45:06;3.05;;;2.33;;
27127;SDS011;14660;49.008;8.390;2023-02-28T00:47:34;4.35;;;2.58;;
27127;SDS011;14660;49.008;8.390;2023-02-28T00:50:01;4.32;;;3.42;;
27127;SDS011;14660;49.008;8.390;2023-02-28T00:52:29;4.53;;;3.05;;
27127;SDS011;14660;49.008;8.390;2023-02-28T00:54:56;5.45;;;3.20;;
27127;SDS011;14660;49.008;8.390;2023-02-28T00:57:23;3.78;;;2.85;;
27127;SDS011;14660;49.008;8.390;2023-02-28T00:59:49;3.55;;;2.95;;
27127;SDS011;14660;49.008;8.390;2023-02-28T01:02:16;5.47;;;3.30;;
27127;SDS011;14660;49.008;8.390;2023-02-28T01:04:44;4.18;;;2.55;;
27127;SDS011;14660;49.008;8.390;2023-02-28T01:07:11;4.22;;;2.42;;
27127;SDS011;14660;49.008;8.390;2023-02-28T01:09:38;2.92;;;2.10;;
27127;SDS011;14660;49.008;8.390;2023-02-28T01:12:05;3.47;;;2.45;;
27127;SDS011;14660;49.008;8.390;2023-02-28T01:14:35;6.80;;;3.75;;
27127;SDS011;14660;49.008;8.390;2023-02-28T01:17:02;4.95;;;3.10;;
27127;SDS011;14660;49.008;8.390;2023-02-28T01:19:29;3.35;;;3.05;;
27127;SDS011;14660;49.008;8.390;2023-02-28T01:21:56;4.60;;;3.40;;
27127;SDS011;14660;49.008;8.390;2023-02-28T01:24:21;4.50;;;3.08;;
27127;SDS011;14660;49.008;8.390;2023-02-28T01:26:48;3.05;;;2.55;;
27127;SDS011;14660;49.008;8.390;2023-02-28T01:29:15;5.53;;;2.63;;
27127;SDS011;14660;49.008;8.390;2023-02-28T01:31:41;3.03;;;2.72;;
27127;SDS011;14660;49.008;8.390;2023-02-28T01:34:08;3.90;;;2.22;;
27127;SDS011;14660;49.008;8.390;2023-02-28T01:36:34;3.83;;;2.35;;
27127;SDS011;14660;49.008;8.390;2023-02-28T01:39:03;4.18;;;2.20;;
27127;SDS011;14660;49.008;8.390;2023-02-28T01:41:31;6.03;;;2.65;;
27127;SDS011;14660;49.008;8.390;2023-02-28T01:44:06;3.72;;;2.47;;
27127;SDS011;14660;49.008;8.390;2023-02-28T01:46:55;3.10;;;2.28;;
27127;SDS011;14660;49.008;8.390;2023-02-28T01:49:20;4.65;;;3.63;;
27127;SDS011;14660;49.008;8.390;2023-02-28T01:51:48;5.28;;;2.35;;
27127;SDS011;14660;49.008;8.390;2023-02-28T01:54:18;3.72;;;2.47;;
27127;SDS011;14660;49.008;8.390;2023-02-28T01:56:54;4.68;;;3.03;;
27127;SDS011;14660;49.008;8.390;2023-02-28T01:59:27;5.20;;;3.13;;
27127;SDS011;14660;49.008;8.390;2023-02-28T02:02:01;5.93;;;2.60;;
27127;SDS011;14660;49.008;8.390;2023-02-28T02:04:32;4.45;;;2.75;;
27127;SDS011;14660;49.008;8.390;2023-02-28T02:07:03;5.47;;;3.55;;
27127;SDS011;14660;49.008;8.390;2023-02-28T02:09:30;4.88;;;3.10;;
27127;SDS011;14660;49.008;8.390;2023-02-28T02:11:57;4.53;;;2.65;;
27127;SDS011;14660;49.008;8.390;2023-02-28T02:17:43;4.93;;;2.55;;
27127;SDS011;14660;49.008;8.390;2023-02-28T02:47:09;4.43;;;2.47;;
27127;SDS011;14660;49.008;8.390;2023-02-28T02:49:41;3.67;;;2.50;;
27127;SDS011;14660;49.008;8.390;2023-02-28T02:54:41;6.32;;;3.33;;
27127;SDS011;14660;49.008;8.390;2023-02-28T02:57:23;3.28;;;2.50;;
27127;SDS011;14660;49.008;8.390;2023-02-28T02:59:57;5.32;;;3.15;;
27127;SDS011;14660;49.008;8.390;2023-02-28T03:02:27;8.27;;;3.10;;
27127;SDS011;14660;49.008;8.390;2023-02-28T03:07:30;5.35;;;2.67;;
27127;SDS011;14660;49.008;8.390;2023-02-28T03:09:56;5.40;;;3.20;;
27127;SDS011;14660;49.008;8.390;2023-02-28T03:12:32;5.85;;;3.75;;
27127;SDS011;14660;49.008;8.390;2023-02-28T03:18:08;5.35;;;2.72;;
27127;SDS011;14660;49.008;8.390;2023-02-28T03:26:39;5.68;;;3.05;;
27127;SDS011;14660;49.008;8.390;2023-02-28T03:35:21;5.63;;;3.25;;
27127;SDS011;14660;49.008;8.390;2023-02-28T03:38:41;3.45;;;2.58;;
27127;SDS011;14660;49.008;8.390;2023-02-28T03:41:03;5.90;;;3.10;;
27127;SDS011;14660;49.008;8.390;2023-02-28T03:43:37;5.47;;;3.50;;
27127;SDS011;14660;49.008;8.390;2023-02-28T03:46:08;7.05;;;3.95;;
27127;SDS011;14660;49.008;8.390;2023-02-28T03:48:45;7.03;;;3.50;;
27127;SDS011;14660;49.008;8.390;2023-02-28T03:51:17;4.80;;;3.55;;
27127;SDS011;14660;49.008;8.390;2023-02-28T03:53:52;8.70;;;3.97;;
27127;SDS011;14660;49.008;8.390;2023-02-28T03:56:31;5.38;;;3.80;;
27127;SDS011;14660;49.008;8.390;2023-02-28T03:59:04;6.00;;;3.40;;
27127;SDS011;14660;49.008;8.390;2023-02-28T04:01:45;7.30;;;3.20;;
27127;SDS011;14660;49.008;8.390;2023-02-28T04:04:16;6.57;;;4.20;;
27127;SDS011;14660;49.008;8.390;2023-02-28T04:06:44;4.65;;;3.22;;
27127;SDS011;14660;49.008;8.390;2023-02-28T04:09:11;5.80;;;3.55;;
27127;SDS011;14660;49.008;8.390;2023-02-28T04:11:52;8.25;;;4.32;;
27127;SDS011;14660;49.008;8.390;2023-02-28T04:14:21;7.22;;;3.72;;
27127;SDS011;14660;49.008;8.390;2023-02-28T04:16:49;6.35;;;3.75;;
27127;SDS011;14660;49.008;8.390;2023-02-28T04:19:16;5.05;;;3.20;;
27127;SDS011;14660;49.008;8.390;2023-02-28T04:24:27;4.53;;;3.65;;
27127;SDS011;14660;49.008;8.390;2023-02-28T04:26:57;5.60;;;3.38;;
27127;SDS011;14660;49.008;8.390;2023-02-28T04:32:10;7.70;;;3.35;;
27127;SDS011;14660;49.008;8.390;2023-02-28T04:34:37;5.57;;;4.20;;
27127;SDS011;14660;49.008;8.390;2023-02-28T04:37:04;7.20;;;3.65;;
27127;SDS011;14660;49.008;8.390;2023-02-28T04:39:34;5.18;;;3.42;;
27127;SDS011;14660;49.008;8.390;2023-02-28T04:42:02;6.25;;;3.42;;
27127;SDS011;14660;49.008;8.390;2023-02-28T04:44:29;7.03;;;3.50;;
27127;SDS011;14660;49.008;8.390;2023-02-28T04:46:57;6.38;;;4.03;;
27127;SDS011;14660;49.008;8.390;2023-02-28T04:49:23;6.15;;;3.92;;
27127;SDS011;14660;49.008;8.390;2023-02-28T04:51:52;6.75;;;3.70;;
27127;SDS011;14660;49.008;8.390;2023-02-28T04:54:19;10.45;;;4.85;;
27127;SDS011;14660;49.008;8.390;2023-02-28T04:56:46;6.72;;;3.47;;
27127;SDS011;14660;49.008;8.390;2023-02-28T04:59:16;6.38;;;3.70;;
27127;SDS011;14660;49.008;8.390;2023-02-28T05:01:45;8.50;;;3.20;;
27127;SDS011;14660;49.008;8.390;2023-02-28T05:04:12;6.35;;;3.75;;
27127;SDS011;14660;49.008;8.390;2023-02-28T05:06:39;8.85;;;4.55;;
27127;SDS011;14660;49.008;8.390;2023-02-28T05:09:05;5.38;;;3.42;;
27127;SDS011;14660;49.008;8.390;2023-02-28T05:11:33;6.10;;;4.10;;
27127;SDS011;14660;49.008;8.390;2023-02-28T05:14:05;7.03;;;4.27;;
27127;SDS011;14660;49.008;8.390;2023-02-28T05:16:35;6.93;;;4.05;;
27127;SDS011;14660;49.008;8.390;2023-02-28T05:19:02;6.22;;;3.92;;
27127;SDS011;14660;49.008;8.390;2023-02-28T05:21:30;6.30;;;4.28;;
27127;SDS011;14660;49.008;8.390;2023-02-28T05:24:19;6.85;;;4.00;;
27127;SDS011;14660;49.008;8.390;2023-02-28T05:26:49;6.82;;;3.83;;
27127;SDS011;14660;49.008;8.390;2023-02-28T05:29:18;10.48;;;4.22;;
27127;SDS011;14660;49.008;8.390;2023-02-28T05:31:45;6.50;;;4.63;;
27127;SDS011;14660;49.008;8.390;2023-02-28T05:34:12;6.43;;;4.07;;
27127;SDS011;14660;49.008;8.390;2023-02-28T05:36:42;7.85;;;4.80;;
27127;SDS011;14660;49.008;8.390;2023-02-28T05:39:10;8.43;;;4.28;;
27127;SDS011;14660;49.008;8.390;2023-02-28T05:41:39;8.32;;;4.07;;
27127;SDS011;14660;49.008;8.390;2023-02-28T05:44:07;9.07;;;4.43;;
27127;SDS011;14660;49.008;8.390;2023-02-28T05:46:35;7.10;;;4.28;;
27127;SDS011;14660;49.008;8.390;2023-02-28T05:49:01;7.10;;;4.18;;
27127;SDS011;14660;49.008;8.390;2023-02-28T05:51:28;9.23;;;4.10;;
27127;SDS011;14660;49.008;8.390;2023-02-28T05:53:58;6.28;;;4.30;;
27127;SDS011;14660;49.008;8.390;2023-02-28T05:56:26;8.10;;;4.40;;
27127;SDS011;14660;49.008;8.390;2023-02-28T05:58:53;7.07;;;4.35;;
27127;SDS011;14660;49.008;8.390;2023-02-28T06:01:20;13.73;;;5.20;;
27127;SDS011;14660;49.008;8.390;2023-02-28T06:03:49;5.10;;;3.97;;
27127;SDS011;14660;49.008;8.390;2023-02-28T06:06:16;9.73;;;4.68;;
27127;SDS011;14660;49.008;8.390;2023-02-28T06:08:43;8.70;;;4.60;;
27127;SDS011;14660;49.008;8.390;2023-02-28T06:11:11;7.57;;;4.07;;
27127;SDS011;14660;49.008;8.390;2023-02-28T06:13:38;6.82;;;3.85;;
27127;SDS011;14660;49.008;8.390;2023-02-28T06:16:05;8.85;;;4.40;;
27127;SDS011;14660;49.008;8.390;2023-02-28T06:18:32;6.28;;;4.63;;
27127;SDS011;14660;49.008;8.390;2023-02-28T06:20:59;8.60;;;4.55;;
27127;SDS011;14660;49.008;8.390;2023-02-28T06:23:27;9.93;;;4.90;;
27127;SDS011;14660;49.008;8.390;2023-02-28T06:25:52;8.15;;;4.18;;
27127;SDS011;14660;49.008;8.390;2023-02-28T06:28:25;6.05;;;3.92;;
27127;SDS011;14660;49.008;8.390;2023-02-28T06:30:53;7.65;;;4.32;;
27127;SDS011;14660;49.008;8.390;2023-02-28T06:33:21;10.75;;;5.20;;
27127;SDS011;14660;49.008;8.390;2023-02-28T06:35:52;9.10;;;5.22;;
27127;SDS011;14660;49.008;8.390;2023-02-28T06:38:20;6.35;;;4.25;;
27127;SDS011;14660;49.008;8.390;2023-02-28T06:40:56;9.50;;;4.65;;
27127;SDS011;14660;49.008;8.390;2023-02-28T06:43:29;8.05;;;4.63;;
27127;SDS011;14660;49.008;8.390;2023-02-28T06:45:58;7.22;;;4.15;;
27127;SDS011;14660;49.008;8.390;2023-02-28T06:48:27;9.65;;;5.07;;
27127;SDS011;14660;49.008;8.390;2023-02-28T06:51:04;8.15;;;5.93;;
27127;SDS011;14660;49.008;8.390;2023-02-28T06:53:49;6.80;;;4.57;;
27127;SDS011;14660;49.008;8.390;2023-02-28T06:56:17;9.00;;;4.75;;
27127;SDS011;14660;49.008;8.390;2023-02-28T06:58:47;8.02;;;4.65;;
27127;SDS011;14660;49.008;8.390;2023-02-28T07:01:15;9.10;;;4.68;;
27127;SDS011;14660;49.008;8.390;2023-02-28T07:03:42;6.03;;;4.45;;
27127;SDS011;14660;49.008;8.390;2023-02-28T07:06:09;8.13;;;5.38;;
27127;SDS011;14660;49.008;8.390;2023-02-28T07:08:37;7.93;;;4.05;;
27127;SDS011;14660;49.008;8.390;2023-02-28T07:11:06;7.28;;;4.75;;
27127;SDS011;14660;49.008;8.390;2023-02-28T07:13:33;7.78;;;4.60;;
27127;SDS011;14660;49.008;8.390;2023-02-28T07:16:00;7.10;;;4.63;;
27127;SDS011;14660;49.008;8.390;2023-02-28T07:18:29;8.32;;;4.40;;
27127;SDS011;14660;49.008;8.390;2023-02-28T07:20:57;9.27;;;4.95;;
27127;SDS011;14660;49.008;8.390;2023-02-28T07:23:28;7.05;;;4.32;;
27127;SDS011;14660;49.008;8.390;2023-02-28T07:25:54;9.85;;;5.03;;
27127;SDS011;14660;49.008;8.390;2023-02-28T07:28:21;11.05;;;4.75;;
27127;SDS011;14660;49.008;8.390;2023-02-28T07:30:49;7.82;;;5.45;;
27127;SDS011;14660;49.008;8.390;2023-02-28T07:33:17;9.75;;;5.22;;
27127;SDS011;14660;49.008;8.390;2023-02-28T07:35:44;10.80;;;5.18;;
27127;SDS011;14660;49.008;8.390;2023-02-28T07:38:10;8.68;;;4.18;;
27127;SDS011;14660;49.008;8.390;2023-02-28T07:40:40;9.73;;;4.90;;
27127;SDS011;14660;49.008;8.390;2023-02-28T07:43:06;10.15;;;5.80;;
27127;SDS011;14660;49.008;8.390;2023-02-28T07:45:33;9.65;;;5.60;;
27127;SDS011;14660;49.008;8.390;2023-02-28T07:47:59;9.82;;;5.32;;
27127;SDS011;14660;49.008;8.390;2023-02-28T07:50:27;8.20;;;5.63;;
27127;SDS011;14660;49.008;8.390;2023-02-28T07:52:57;9.25;;;6.10;;
27127;SDS011;14660;49.008;8.390;2023-02-28T07:55:27;10.57;;;5.18;;
27127;SDS011;14660;49.008;8.390;2023-02-28T07:57:54;10.13;;;6.22;;
27127;SDS011;14660;49.008;8.390;2023-02-28T08:00:22;11.00;;;5.57;;
27127;SDS011;14660;49.008;8.390;2023-02-28T08:02:50;8.80;;;5.70;;
27127;SDS011;14660;49.008;8.390;2023-02-28T08:05:17;7.93;;;5.07;;
27127;SDS011;14660;49.008;8.390;2023-02-28T08:07:44;7.47;;;5.03;;
27127;SDS011;14660;49.008;8.390;2023-02-28T08:10:11;8.07;;;5.15;;
27127;SDS011;14660;49.008;8.390;2023-02-28T08:12:39;10.70;;;5.68;;
27127;SDS011;14660;49.008;8.390;2023-02-28T08:15:06;10.18;;;6.22;;
27127;SDS011;14660;49.008;8.390;2023-02-28T08:17:33;9.18;;;5.50;;
27127;SDS011;14660;49.008;8.390;2023-02-28T08:20:00;7.78;;;5.35;;
27127;SDS011;14660;49.008;8.390;2023-02-28T08:22:28;8.88;;;5.45;;
27127;SDS011;14660;49.008;8.390;2023-02-28T08:24:55;9.73;;;5.35;;
27127;SDS011;14660;49.008;8.390;2023-02-28T08:27:21;11.20;;;5.18;;
27127;SDS011;14660;49.008;8.390;2023-02-28T08:29:48;9.43;;;6.30;;
27127;SDS011;14660;49.008;8.390;2023-02-28T08:32:15;14.27;;;6.28;;
27127;SDS011;14660;49.008;8.390;2023-02-28T08:34:41;9.27;;;6.13;;
27127;SDS011;14660;49.008;8.390;2023-02-28T08:37:09;11.65;;;6.57;;
27127;SDS011;14660;49.008;8.390;2023-02-28T08:39:35;12.48;;;7.00;;
27127;SDS011;14660;49.008;8.390;2023-02-28T08:42:03;12.75;;;7.78;;
27127;SDS011;14660;49.008;8.390;2023-02-28T08:44:31;10.52;;;6.72;;
27127;SDS011;14660;49.008;8.390;2023-02-28T08:46:58;9.57;;;5.05;;
27127;SDS011;14660;49.008;8.390;2023-02-28T08:49:25;10.65;;;5.70;;
27127;SDS011;14660;49.008;8.390;2023-02-28T08:51:52;10.95;;;6.03;;
27127;SDS011;14660;49.008;8.390;2023-02-28T08:54:18;10.20;;;6.00;;
27127;SDS011;14660;49.008;8.390;2023-02-28T08:56:48;13.35;;;6.15;;
27127;SDS011;14660;49.008;8.390;2023-02-28T08:59:15;11.65;;;6.30;;
27127;SDS011;14660;49.008;8.390;2023-02-28T09:01:42;9.30;;;5.95;;
27127;SDS011;14660;49.008;8.390;2023-02-28T09:04:10;10.40;;;6.05;;
27127;SDS011;14660;49.008;8.390;2023-02-28T09:06:37;10.55;;;5.95;;
27127;SDS011;14660;49.008;8.390;2023-02-28T09:09:04;9.75;;;5.45;;
27127;SDS011;14660;49.008;8.390;2023-02-28T09:11:34;8.50;;;6.28;;
27127;SDS011;14660;49.008;8.390;2023-02-28T09:14:00;12.82;;;7.10;;
27127;SDS011;14660;49.008;8.390;2023-02-28T09:16:30;9.05;;;5.93;;
27127;SDS011;14660;49.008;8.390;2023-02-28T09:18:56;9.80;;;6.43;;
27127;SDS011;14660;49.008;8.390;2023-02-28T09:21:24;9.65;;;6.22;;
27127;SDS011;14660;49.008;8.390;2023-02-28T09:23:51;13.50;;;6.80;;
27127;SDS011;14660;49.008;8.390;2023-02-28T09:26:23;11.35;;;6.32;;
27127;SDS011;14660;49.008;8.390;2023-02-28T09:28:52;12.05;;;7.40;;
27127;SDS011;14660;49.008;8.390;2023-02-28T09:31:22;10.30;;;6.97;;
27127;SDS011;14660;49.008;8.390;2023-02-28T09:33:50;14.20;;;6.78;;
27127;SDS011;14660;49.008;8.390;2023-02-28T09:36:19;10.93;;;6.50;;
27127;SDS011;14660;49.008;8.390;2023-02-28T09:38:46;13.07;;;7.00;;
27127;SDS011;14660;49.008;8.390;2023-02-28T09:41:13;11.48;;;6.30;;
27127;SDS011;14660;49.008;8.390;2023-02-28T09:43:55;10.07;;;6.25;;
27127;SDS011;14660;49.008;8.390;2023-02-28T09:49:19;11.52;;;6.75;;
27127;SDS011;14660;49.008;8.390;2023-02-28T09:54:44;13.48;;;7.47;;
27127;SDS011;14660;49.008;8.390;2023-02-28T10:12:04;14.07;;;7.20;;
27127;SDS011;14660;49.008;8.390;2023-02-28T10:14:32;12.60;;;7.10;;
27127;SDS011;14660;49.008;8.390;2023-02-28T10:17:19;11.13;;;6.82;;
27127;SDS011;14660;49.008;8.390;2023-02-28T10:25:35;10.75;;;7.95;;
27127;SDS011;14660;49.008;8.390;2023-02-28T10:28:11;14.55;;;8.23;;
27127;SDS011;14660;49.008;8.390;2023-02-28T10:30:40;9.60;;;7.53;;
27127;SDS011;14660;49.008;8.390;2023-02-28T10:33:14;13.75;;;6.65;;
27127;SDS011;14660;49.008;8.390;2023-02-28T10:36:02;12.25;;;8.07;;
27127;SDS011;14660;49.008;8.390;2023-02-28T10:41:27;15.27;;;8.48;;
27127;SDS011;14660;49.008;8.390;2023-02-28T10:46:59;25.55;;;8.23;;
27127;SDS011;14660;49.008;8.390;2023-02-28T10:49:27;13.68;;;7.68;;
27127;SDS011;14660;49.008;8.390;2023-02-28T10:51:56;15.77;;;8.10;;
27127;SDS011;14660;49.008;8.390;2023-02-28T10:54:29;14.68;;;8.40;;
27127;SDS011;14660;49.008;8.390;2023-02-28T11:00:22;15.38;;;7.50;;
27127;SDS011;14660;49.008;8.390;2023-02-28T11:02:51;10.77;;;7.35;;
27127;SDS011;14660;49.008;8.390;2023-02-28T11:10:53;11.30;;;7.50;;
27127;SDS011;14660;49.008;8.390;2023-02-28T11:13:25;10.07;;;7.43;;
27127;SDS011;14660;49.008;8.390;2023-02-28T11:15:55;12.77;;;8.07;;
27127;SDS011;14660;49.008;8.390;2023-02-28T11:21:18;13.88;;;7.50;;
27127;SDS011;14660;49.008;8.390;2023-02-28T11:23:52;13.82;;;8.70;;
27127;SDS011;14660;49.008;8.390;2023-02-28T11:26:41;15.07;;;7.72;;
27127;SDS011;14660;49.008;8.390;2023-02-28T11:29:12;14.23;;;8.57;;
27127;SDS011;14660;49.008;8.390;2023-02-28T11:31:41;13.23;;;8.02;;
27127;SDS011;14660;49.008;8.390;2023-02-28T11:34:25;11.88;;;7.63;;
27127;SDS011;14660;49.008;8.390;2023-02-28T11:36:54;13.32;;;8.00;;
27127;SDS011;14660;49.008;8.390;2023-02-28T11:39:23;13.43;;;8.57;;
27127;SDS011;14660;49.008;8.390;2023-02-28T12:28:09;12.95;;;8.68;;
27127;SDS011;14660;49.008;8.390;2023-02-28T12:30:41;14.50;;;8.43;;
27127;SDS011;14660;49.008;8.390;2023-02-28T12:33:24;14.63;;;8.32;;
27127;SDS011;14660;49.008;8.390;2023-02-28T12:35:59;14.63;;;8.95;;
27127;SDS011;14660;49.008;8.390;2023-02-28T12:38:38;9.95;;;7.57;;
27127;SDS011;14660;49.008;8.390;2023-02-28T12:47:20;13.68;;;8.48;;
27127;SDS011;14660;49.008;8.390;2023-02-28T12:50:05;15.93;;;8.93;;
27127;SDS011;14660;49.008;8.390;2023-02-28T12:58:54;10.73;;;8.23;;
27127;SDS011;14660;49.008;8.390;2023-02-28T13:10:47;12.85;;;8.25;;
27127;SDS011;14660;49.008;8.390;2023-02-28T13:13:25;10.73;;;8.38;;
27127;SDS011;14660;49.008;8.390;2023-02-28T13:21:41;11.13;;;7.30;;
27127;SDS011;14660;49.008;8.390;2023-02-28T13:24:11;16.40;;;9.85;;
27127;SDS011;14660;49.008;8.390;2023-02-28T13:29:52;12.18;;;9.38;;
27127;SDS011;14660;49.008;8.390;2023-02-28T13:40:50;16.92;;;9.18;;
27127;SDS011;14660;49.008;8.390;2023-02-28T13:43:17;14.82;;;10.43;;
27127;SDS011;14660;49.008;8.390;2023-02-28T13:46:04;16.02;;;9.90;;
27127;SDS011;14660;49.008;8.390;2023-02-28T13:48:34;15.02;;;8.93;;
27127;SDS011;14660;49.008;8.390;2023-02-28T13:51:24;15.32;;;9.25;;
27127;SDS011;14660;49.008;8.390;2023-02-28T13:53:56;17.00;;;8.90;;
27127;SDS011;14660;49.008;8.390;2023-02-28T13:56:45;13.60;;;8.45;;
27127;SDS011;14660;49.008;8.390;2023-02-28T14:05:28;14.65;;;9.60;;
27127;SDS011;14660;49.008;8.390;2023-02-28T14:07:56;15.75;;;9.25;;
27127;SDS011;14660;49.008;8.390;2023-02-28T14:10:39;18.63;;;9.93;;
27127;SDS011;14660;49.008;8.390;2023-02-28T14:16:16;14.10;;;8.38;;
27127;SDS011;14660;49.008;8.390;2023-02-28T14:21:51;18.40;;;10.38;;
27127;SDS011;14660;49.008;8.390;2023-02-28T14:31:06;15.02;;;9.70;;
27127;SDS011;14660;49.008;8.390;2023-02-28T14:36:52;11.00;;;8.38;;
27127;SDS011;14660;49.008;8.390;2023-02-28T14:39:25;18.48;;;10.18;;
27127;SDS011;14660;49.008;8.390;2023-02-28T14:41:53;14.93;;;10.15;;
27127;SDS011;14660;49.008;8.390;2023-02-28T14:44:25;16.25;;;8.93;;
27127;SDS011;14660;49.008;8.390;2023-02-28T14:46:57;16.73;;;9.65;;
27127;SDS011;14660;49.008;8.390;2023-02-28T14:49:32;13.43;;;8.48;;
27127;SDS011;14660;49.008;8.390;2023-02-28T14:55:10;13.75;;;9.65;;
27127;SDS011;14660;49.008;8.390;2023-02-28T14:57:42;14.75;;;9.98;;
27127;SDS011;14660;49.008;8.390;2023-02-28T15:00:51;16.38;;;8.80;;
27127;SDS011;14660;49.008;8.390;2023-02-28T15:09:37;17.92;;;10.27;;
27127;SDS011;14660;49.008;8.390;2023-02-28T15:11:48;15.75;;;9.35;;
27127;SDS011;14660;49.008;8.390;2023-02-28T15:14:17;18.67;;;10.65;;
27127;SDS011;14660;49.008;8.390;2023-02-28T15:16:48;17.17;;;9.68;;
27127;SDS011;14660;49.008;8.390;2023-02-28T15:22:15;15.10;;;8.73;;
27127;SDS011;14660;49.008;8.390;2023-02-28T15:24:46;15.50;;;9.20;;
27127;SDS011;14660;49.008;8.390;2023-02-28T15:30:07;11.00;;;7.85;;
27127;SDS011;14660;49.008;8.390;2023-02-28T15:32:39;11.50;;;8.55;;
27127;SDS011;14660;49.008;8.390;2023-02-28T15:40:54;17.40;;;9.63;;
27127;SDS011;14660;49.008;8.390;2023-02-28T15:43:33;20.08;;;10.10;;
27127;SDS011;14660;49.008;8.390;2023-02-28T15:46:18;15.40;;;8.98;;
27127;SDS011;14660;49.008;8.390;2023-02-28T15:48:51;15.85;;;8.65;;
27127;SDS011;14660;49.008;8.390;2023-02-28T15:51:20;16.73;;;8.93;;
27127;SDS011;14660;49.008;8.390;2023-02-28T15:56:46;12.55;;;8.68;;
27127;SDS011;14660;49.008;8.390;2023-02-28T15:59:27;14.02;;;8.82;;
27127;SDS011;14660;49.008;8.390;2023-02-28T16:07:43;25.17;;;13.65;;
27127;SDS011;14660;49.008;8.390;2023-02-28T16:10:11;20.52;;;10.98;;
27127;SDS011;14660;49.008;8.390;2023-02-28T16:12:40;13.15;;;8.88;;
27127;SDS011;14660;49.008;8.390;2023-02-28T16:17:55;14.48;;;9.02;;
27127;SDS011;14660;49.008;8.390;2023-02-28T16:20:27;15.85;;;10.48;;
27127;SDS011;14660;49.008;8.390;2023-02-28T16:22:56;14.20;;;8.88;;
27127;SDS011;14660;49.008;8.390;2023-02-28T16:25:29;14.57;;;8.90;;
27127;SDS011;14660;49.008;8.390;2023-02-28T16:28:18;17.10;;;9.45;;
27127;SDS011;14660;49.008;8.390;2023-02-28T16:30:54;11.93;;;8.63;;
27127;SDS011;14660;49.008;8.390;2023-02-28T16:33:21;15.43;;;8.90;;
27127;SDS011;14660;49.008;8.390;2023-02-28T16:35:48;15.82;;;10.00;;
27127;SDS011;14660;49.008;8.390;2023-02-28T16:38:17;17.25;;;9.57;;
27127;SDS011;14660;49.008;8.390;2023-02-28T16:40:44;14.30;;;9.88;;
27127;SDS011;14660;49.008;8.390;2023-02-28T16:43:22;14.93;;;10.32;;
27127;SDS011;14660;49.008;8.390;2023-02-28T16:45:57;14.27;;;8.35;;
27127;SDS011;14660;49.008;8.390;2023-02-28T16:48:29;15.35;;;10.20;;
27127;SDS011;14660;49.008;8.390;2023-02-28T16:50:57;19.67;;;10.60;;
27127;SDS011;14660;49.008;8.390;2023-02-28T16:53:25;17.90;;;10.48;;
27127;SDS011;14660;49.008;8.390;2023-02-28T16:55:51;15.30;;;9.52;;
27127;SDS011;14660;49.008;8.390;2023-02-28T16:58:19;14.55;;;8.82;;
27127;SDS011;14660;49.008;8.390;2023-02-28T17:00:48;13.32;;;8.93;;
27127;SDS011;14660;49.008;8.390;2023-02-28T17:03:20;13.52;;;8.70;;
27127;SDS011;14660;49.008;8.390;2023-02-28T17:05:50;18.13;;;10.43;;
27127;SDS011;14660;49.008;8.390;2023-02-28T17:08:18;18.02;;;8.85;;
27127;SDS011;14660;49.008;8.390;2023-02-28T17:10:45;13.07;;;8.43;;
27127;SDS011;14660;49.008;8.390;2023-02-28T17:13:12;14.05;;;8.57;;
27127;SDS011;14660;49.008;8.390;2023-02-28T17:15:39;15.93;;;9.38;;
27127;SDS011;14660;49.008;8.390;2023-02-28T17:18:06;13.27;;;8.23;;
27127;SDS011;14660;49.008;8.390;2023-02-28T17:20:36;14.90;;;9.70;;
27127;SDS011;14660;49.008;8.390;2023-02-28T17:23:04;13.27;;;8.38;;
27127;SDS011;14660;49.008;8.390;2023-02-28T17:25:30;12.85;;;8.27;;
27127;SDS011;14660;49.008;8.390;2023-02-28T17:27:56;13.48;;;9.23;;
27127;SDS011;14660;49.008;8.390;2023-02-28T17:30:25;16.42;;;8.38;;
27127;SDS011;14660;49.008;8.390;2023-02-28T17:32:54;15.38;;;8.27;;
27127;SDS011;14660;49.008;8.390;2023-02-28T17:35:21;15.15;;;9.20;;
27127;SDS011;14660;49.008;8.390;2023-02-28T17:37:47;15.25;;;8.70;;
27127;SDS011;14660;49.008;8.390;2023-02-28T17:40:15;15.43;;;8.75;;
27127;SDS011;14660;49.008;8.390;2023-02-28T17:42:45;11.05;;;7.80;;
27127;SDS011;14660;49.008;8.390;2023-02-28T17:45:13;13.55;;;8.75;;
27127;SDS011;14660;49.008;8.390;2023-02-28T17:47:43;14.55;;;8.35;;
27127;SDS011;14660;49.008;8.390;2023-02-28T17:50:14;11.32;;;8.00;;
27127;SDS011;14660;49.008;8.390;2023-02-28T17:52:44;13.27;;;7.82;;
27127;SDS011;14660;49.008;8.390;2023-02-28T17:55:16;16.95;;;8.75;;
27127;SDS011;14660;49.008;8.390;2023-02-28T17:57:45;15.35;;;9.00;;
27127;SDS011;14660;49.008;8.390;2023-02-28T18:00:13;15.75;;;8.32;;
27127;SDS011;14660;49.008;8.390;2023-02-28T18:02:43;13.02;;;7.88;;
27127;SDS011;14660;49.008;8.390;2023-02-28T18:05:11;16.38;;;8.48;;
27127;SDS011;14660;49.008;8.390;2023-02-28T18:07:38;14.90;;;8.95;;
27127;SDS011;14660;49.008;8.390;2023-02-28T18:10:06;12.32;;;8.95;;
27127;SDS011;14660;49.008;8.390;2023-02-28T18:12:40;13.52;;;8.43;;
27127;SDS011;14660;49.008;8.390;2023-02-28T18:15:09;15.30;;;8.48;;
27127;SDS011;14660;49.008;8.390;2023-02-28T18:17:35;16.70;;;9.80;;
27127;SDS011;14660;49.008;8.390;2023-02-28T18:20:01;15.18;;;8.43;;
27127;SDS011;14660;49.008;8.390;2023-02-28T18:22:31;12.10;;;8.13;;
27127;SDS011;14660;49.008;8.390;2023-02-28T18:24:58;14.82;;;9.60;;
27127;SDS011;14660;49.008;8.390;2023-02-28T18:27:26;13.32;;;8.68;;
27127;SDS011;14660;49.008;8.390;2023-02-28T18:29:56;17.42;;;8.68;;
27127;SDS011;14660;49.008;8.390;2023-02-28T18:32:23;14.68;;;7.93;;
27127;SDS011;14660;49.008;8.390;2023-02-28T18:34:50;15.52;;;9.10;;
27127;SDS011;14660;49.008;8.390;2023-02-28T18:37:16;17.77;;;9.05;;
27127;SDS011;14660;49.008;8.390;2023-02-28T18:39:44;16.95;;;9.18;;
27127;SDS011;14660;49.008;8.390;2023-02-28T18:42:11;16.65;;;8.48;;
27127;SDS011;14660;49.008;8.390;2023-02-28T18:44:39;15.50;;;8.60;;
27127;SDS011;14660;49.008;8.390;2023-02-28T18:47:06;16.20;;;9.02;;
27127;SDS011;14660;49.008;8.390;2023-02-28T18:49:33;17.48;;;8.90;;
27127;SDS011;14660;49.008;8.390;2023-02-28T18:52:00;14.05;;;8.55;;
27127;SDS011;14660;49.008;8.390;2023-02-28T18:54:27;15.80;;;8.93;;
27127;SDS011;14660;49.008;8.390;2023-02-28T18:56:52;14.38;;;8.68;;